Time;durP1;ratioP1;P1;durP2;ratioP2;P2;SDS_P1;SDS_P2;PMS_P1;PMS_P2;Temp;Humidity;BMP_temperature;BMP_pressure;BME280_temperature;BME280_humidity;BME280_pressure;Samples;Min_cycle;Max_cycle;Signal;HPM_P1;HPM_P2
2022/08/04 00:00:25;;;;;;;9.38;3.72;;;;;;;;;;5113701;27;20451;-78
2022/08/04 00:03:15;;;;;;;11.77;3.92;;;21.80;99.90;;;;;;5132923;27;20428;-78
2022/08/04 00:06:03;;;;;;;11.85;3.95;;;22.30;99.90;;;;;;5117773;27;20967;-78
2022/08/04 00:08:36;;;;;;;10.35;3.47;;;21.80;99.90;;;;;;5111356;28;20457;-78
2022/08/04 00:11:02;;;;;;;10.10;3.85;;;21.80;99.90;;;;;;5111565;27;20503;-78
2022/08/04 00:13:34;;;;;;;10.00;3.42;;;21.80;99.90;;;;;;5121699;27;20450;-78
2022/08/04 00:16:08;;;;;;;9.55;3.80;;;21.80;99.90;;;;;;5105541;27;20438;-78
2022/08/04 00:19:00;;;;;;;11.95;3.78;;;21.50;99.90;;;;;;5112756;27;20435;-78
2022/08/04 00:21:28;;;;;;;11.30;3.90;;;21.80;99.90;;;;;;5131897;27;20409;-78
2022/08/04 00:23:55;;;;;;;12.07;4.15;;;21.30;99.90;;;;;;5116829;27;20918;-78
2022/08/04 00:26:21;;;;;;;14.00;4.53;;;21.70;99.90;;;;;;5100791;27;20411;-78
2022/08/04 00:28:47;;;;;;;11.70;4.07;;;21.30;99.90;;;;;;5130514;27;20415;-78
2022/08/04 00:31:14;;;;;;;14.75;4.68;;;21.30;99.90;;;;;;5096738;28;20423;-79
2022/08/04 00:33:48;;;;;;;9.90;4.28;;;21.50;99.90;;;;;;5084645;28;20420;-79
2022/08/04 00:36:14;;;;;;;12.38;4.50;;;21.20;99.90;;;;;;5116006;27;20471;-77
2022/08/04 00:38:40;;;;;;;10.80;4.35;;;21.10;99.90;;;;;;5121103;27;20992;-77
2022/08/04 00:41:29;;;;;;;11.52;3.90;;;21.20;99.90;;;;;;5096835;27;20702;-78
2022/08/04 00:44:36;;;;;;;9.40;3.65;;;21.50;99.90;;;;;;5118554;27;20425;-78
2022/08/04 00:47:02;;;;;;;10.52;3.85;;;21.00;99.90;;;;;;5054651;28;20420;-78
2022/08/04 00:49:40;;;;;;;7.45;3.33;;;21.20;99.90;;;;;;5096915;27;20424;-77
2022/08/04 00:52:34;;;;;;;10.57;4.03;;;21.30;99.90;;;;;;5126527;27;20418;-78
2022/08/04 00:55:19;;;;;;;15.15;4.00;;;21.00;99.90;;;;;;5111128;27;20825;-78
2022/08/04 00:58:22;;;;;;;12.95;3.95;;;21.20;99.90;;;;;;5092736;28;20473;-78
2022/08/04 01:01:15;;;;;;;7.97;3.65;;;21.20;99.90;;;;;;5114368;27;20538;-77
2022/08/04 01:03:41;;;;;;;13.32;4.80;;;21.00;99.90;;;;;;5132215;27;20422;-77
2022/08/04 01:06:20;;;;;;;14.20;4.60;;;21.30;99.90;;;;;;5133604;27;20417;-77
2022/08/04 01:09:33;;;;;;;10.02;3.90;;;21.10;99.90;;;;;;5108626;28;20904;-77
2022/08/04 01:12:09;;;;;;;9.18;4.07;;;;;;;;;;5115009;27;20411;-77
2022/08/04 01:14:38;;;;;;;10.55;4.20;;;;;;;;;;5128376;27;20428;-77
2022/08/04 01:17:24;;;;;;;10.02;4.05;;;21.00;99.90;;;;;;5132616;27;20517;-77
2022/08/04 01:20:02;;;;;;;11.10;4.10;;;20.70;99.90;;;;;;5133066;27;20791;-77
2022/08/04 01:22:28;;;;;;;9.85;3.97;;;21.30;99.90;;;;;;5132595;27;20475;-77
2022/08/04 01:25:26;;;;;;;9.50;4.10;;;20.90;99.90;;;;;;5131895;27;20410;-78
2022/08/04 01:27:58;;;;;;;11.18;4.43;;;;;;;;;;5104916;27;20429;-77
2022/08/04 01:30:26;;;;;;;10.88;4.25;;;20.80;99.90;;;;;;5132889;27;20422;-78
2022/08/04 01:33:03;;;;;;;9.50;4.32;;;20.90;99.90;;;;;;5123513;27;20481;-77
2022/08/04 01:35:50;;;;;;;10.27;4.30;;;20.60;99.90;;;;;;5150322;27;20927;-77
2022/08/04 01:38:25;;;;;;;11.97;5.20;;;20.90;99.90;;;;;;5097504;28;20409;-77
2022/08/04 01:41:02;;;;;;;11.90;4.97;;;20.80;99.90;;;;;;5100048;27;20434;-77
2022/08/04 01:43:29;;;;;;;12.93;4.85;;;20.70;99.90;;;;;;5117633;27;20529;-78
2022/08/04 01:46:03;;;;;;;12.85;4.60;;;20.60;99.90;;;;;;5120918;27;20404;-77
2022/08/04 01:48:30;;;;;;;12.77;4.38;;;20.70;99.90;;;;;;5120757;27;20927;-78
2022/08/04 01:51:04;;;;;;;10.02;4.55;;;20.70;99.90;;;;;;5120475;27;20513;-77
2022/08/04 01:53:35;;;;;;;11.80;4.68;;;20.80;99.90;;;;;;5131436;27;20871;-77
2022/08/04 01:56:03;;;;;;;13.80;5.25;;;20.80;99.90;;;;;;5114539;27;20792;-77
2022/08/04 01:58:30;;;;;;;15.25;5.10;;;20.80;99.90;;;;;;5118227;27;20427;-77
2022/08/04 02:01:05;;;;;;;19.73;5.60;;;20.70;99.90;;;;;;5134228;27;20406;-77
2022/08/04 02:03:32;;;;;;;20.37;6.10;;;21.00;99.90;;;;;;5130823;27;20937;-77
2022/08/04 02:06:30;;;;;;;27.02;6.07;;;20.50;99.90;;;;;;5131235;27;20479;-77
2022/08/04 02:08:56;;;;;;;23.20;6.20;;;;;;;;;;5135183;27;20422;-77
2022/08/04 02:11:22;;;;;;;27.13;6.60;;;;;;;;;;5133066;27;20427;-77
2022/08/04 02:14:01;;;;;;;18.65;6.55;;;20.40;99.90;;;;;;5104093;27;20512;-77
2022/08/04 02:16:45;;;;;;;17.13;6.10;;;20.50;99.90;;;;;;5117227;27;20864;-77
2022/08/04 02:19:31;;;;;;;18.70;6.07;;;20.70;99.90;;;;;;5109037;27;20916;-77
2022/08/04 02:22:07;;;;;;;19.42;6.43;;;20.50;99.90;;;;;;5108935;28;20416;-77
2022/08/04 02:24:42;;;;;;;17.52;6.45;;;20.50;99.90;;;;;;5130081;27;20443;-77
2022/08/04 02:27:09;;;;;;;18.33;6.35;;;20.80;99.90;;;;;;5115950;27;20402;-77
2022/08/04 02:29:53;;;;;;;15.95;6.60;;;20.60;99.90;;;;;;5115510;27;20493;-77
2022/08/04 02:32:27;;;;;;;17.40;5.93;;;;;;;;;;5121501;27;20418;-77
2022/08/04 02:35:08;;;;;;;14.52;5.70;;;;;;;;;;5099199;27;20430;-77
2022/08/04 02:37:35;;;;;;;16.33;6.20;;;20.50;99.90;;;;;;5116472;27;20395;-77
2022/08/04 02:40:04;;;;;;;14.73;6.30;;;20.80;99.90;;;;;;5133790;27;20906;-77
2022/08/04 02:42:31;;;;;;;12.23;6.00;;;20.60;99.90;;;;;;5132222;27;20429;-77
2022/08/04 02:44:58;;;;;;;15.90;6.25;;;20.60;99.90;;;;;;5117183;27;20491;-76
2022/08/04 02:47:26;;;;;;;17.60;6.53;;;20.40;99.90;;;;;;5132582;27;20486;-78
2022/08/04 02:49:53;;;;;;;14.35;5.88;;;;;;;;;;5116687;27;21154;-77
2022/08/04 02:52:19;;;;;;;11.27;5.68;;;20.40;99.90;;;;;;5131899;27;20754;-77
2022/08/04 02:54:49;;;;;;;14.43;5.97;;;20.50;99.90;;;;;;5107903;27;20512;-78
2022/08/04 02:57:17;;;;;;;16.00;6.18;;;20.40;99.90;;;;;;5122068;27;20422;-78
2022/08/04 02:59:59;;;;;;;11.35;5.47;;;;;;;;;;5132095;27;20399;-76
2022/08/04 03:02:43;;;;;;;10.57;5.68;;;20.40;99.90;;;;;;5122165;27;20418;-77
2022/08/04 03:05:50;;;;;;;10.40;5.47;;;20.50;99.90;;;;;;5124428;27;20427;-77
2022/08/04 03:08:55;;;;;;;13.27;5.85;;;20.80;99.90;;;;;;5115871;27;20418;-77
2022/08/04 03:11:42;;;;;;;16.55;5.95;;;20.70;99.90;;;;;;5081353;27;20474;-77
2022/08/04 03:14:46;;;;;;;11.25;6.03;;;20.60;99.90;;;;;;5121837;27;20505;-77
2022/08/04 03:17:45;;;;;;;10.73;5.73;;;20.30;99.90;;;;;;5098404;28;20511;-78
2022/08/04 03:20:46;;;;;;;11.48;5.95;;;20.40;99.90;;;;;;5129092;27;20414;-78
2022/08/04 03:23:41;;;;;;;10.43;5.55;;;20.60;99.90;;;;;;5085344;27;20426;-77
2022/08/04 03:26:44;;;;;;;12.53;5.70;;;20.40;99.90;;;;;;5133534;27;20475;-77
2022/08/04 03:29:28;;;;;;;12.18;5.55;;;20.30;99.90;;;;;;5124299;27;20828;-77
2022/08/04 03:32:18;;;;;;;13.35;6.15;;;20.50;99.90;;;;;;5095033;28;20468;-78
2022/08/04 03:35:06;;;;;;;14.55;6.35;;;20.00;99.90;;;;;;5115175;27;20428;-77
2022/08/04 03:37:57;;;;;;;12.68;5.82;;;20.00;99.90;;;;;;5132595;27;20394;-78
2022/08/04 03:40:29;;;;;;;11.05;5.75;;;20.10;99.90;;;;;;5078925;27;20423;-78
2022/08/04 03:43:23;;;;;;;11.25;5.78;;;20.20;99.90;;;;;;5095118;28;20428;-78
2022/08/04 03:46:20;;;;;;;10.57;5.80;;;20.00;99.90;;;;;;5084522;27;20821;-77
2022/08/04 03:48:52;;;;;;;13.20;6.00;;;;;;;;;;5101348;27;20753;-78
2022/08/04 03:54:38;;;;;;;11.57;5.68;;;;;;;;;;5131379;27;20418;-78
2022/08/04 03:57:04;;;;;;;10.67;5.80;;;;;;;;;;5122506;27;20928;-79
2022/08/04 04:00:05;;;;;;;10.43;6.03;;;19.90;99.90;;;;;;5114711;27;20391;-78
2022/08/04 04:02:37;;;;;;;12.57;6.60;;;;;;;;;;5112915;27;20497;-78
2022/08/04 04:05:21;;;;;;;12.65;6.53;;;;;;;;;;5124193;27;20421;-76
2022/08/04 04:08:09;;;;;;;13.25;6.60;;;19.90;99.90;;;;;;5127125;27;20759;-79
2022/08/04 04:11:03;;;;;;;10.53;6.40;;;19.70;99.90;;;;;;5130029;27;20447;-80
2022/08/04 04:13:54;;;;;;;14.20;6.88;;;20.00;99.90;;;;;;5115437;27;20780;-80
2022/08/04 04:16:20;;;;;;;11.70;6.13;;;;;;;;;;5127016;27;20910;-79
2022/08/04 04:18:46;;;;;;;12.90;6.80;;;;;;;;;;5131711;27;20847;-80
2022/08/04 04:21:26;;;;;;;12.05;6.53;;;20.10;99.90;;;;;;5104211;27;20412;-79
2022/08/04 04:24:29;;;;;;;11.30;6.25;;;20.00;99.90;;;;;;5130791;27;20419;-80
2022/08/04 04:27:33;;;;;;;15.43;6.70;;;20.10;99.90;;;;;;5109638;28;20760;-79
2022/08/04 04:30:05;;;;;;;13.48;6.68;;;19.80;99.90;;;;;;5022843;28;20461;-80
2022/08/04 04:32:31;;;;;;;11.97;6.40;;;;;;;;;;5117457;27;20425;-81
2022/08/04 04:35:33;;;;;;;11.65;6.03;;;20.00;99.90;;;;;;5132598;27;20422;-79
2022/08/04 04:38:30;;;;;;;12.35;7.00;;;19.90;99.90;;;;;;5129859;27;20572;-79
2022/08/04 04:40:56;;;;;;;11.63;6.65;;;20.10;99.90;;;;;;5114568;28;20407;-80
2022/08/04 04:43:44;;;;;;;12.77;7.18;;;20.10;99.90;;;;;;5113656;27;20430;-79
2022/08/04 04:46:28;;;;;;;11.70;6.37;;;20.10;99.90;;;;;;5122677;27;20416;-79
2022/08/04 04:49:07;;;;;;;12.50;6.25;;;20.20;99.90;;;;;;5123520;27;20483;-79
2022/08/04 04:52:26;;;;;;;13.40;6.20;;;20.20;99.90;;;;;;5134502;27;20391;-79
2022/08/04 04:54:52;;;;;;;18.77;6.55;;;;;;;;;;5027004;28;20958;-79
2022/08/04 04:57:20;;;;;;;14.88;7.10;;;20.70;99.90;;;;;;5030815;28;20425;-79
2022/08/04 05:00:02;;;;;;;13.77;6.53;;;20.70;99.90;;;;;;5068563;28;20480;-79
2022/08/04 05:02:41;;;;;;;13.87;6.97;;;20.60;99.90;;;;;;5108551;28;20408;-80
2022/08/04 05:05:24;;;;;;;11.55;6.50;;;20.50;99.90;;;;;;5111037;27;20420;-79
2022/08/04 05:08:08;;;;;;;13.05;6.70;;;20.70;99.90;;;;;;5115695;27;20420;-79
2022/08/04 05:11:03;;;;;;;14.07;6.90;;;20.50;99.90;;;;;;5133581;27;20406;-80
2022/08/04 05:13:38;;;;;;;14.32;6.82;;;;;;;;;;5129227;27;20482;-80
2022/08/04 05:16:24;;;;;;;13.68;6.65;;;20.50;99.90;;;;;;5118330;28;20409;-79
2022/08/04 05:19:19;;;;;;;12.45;7.05;;;20.70;99.90;;;;;;5112916;28;20471;-80
2022/08/04 05:22:10;;;;;;;13.65;7.68;;;20.80;99.90;;;;;;5117440;27;20426;-77
2022/08/04 05:24:41;;;;;;;14.88;7.10;;;;;;;;;;5123247;27;20408;-78
2022/08/04 05:27:15;;;;;;;13.50;7.45;;;20.90;99.90;;;;;;5115779;28;20913;-76
2022/08/04 05:30:03;;;;;;;11.75;7.22;;;20.90;99.90;;;;;;5131202;28;20425;-77
2022/08/04 05:32:36;;;;;;;15.38;7.82;;;21.00;99.90;;;;;;5115689;27;20566;-77
2022/08/04 05:35:07;;;;;;;15.10;7.47;;;21.20;99.90;;;;;;5121751;27;20497;-77
2022/08/04 05:37:36;;;;;;;12.77;7.90;;;20.90;99.90;;;;;;5128060;28;21031;-76
2022/08/04 05:40:05;;;;;;;15.05;8.25;;;21.20;99.90;;;;;;5128925;28;20773;-78
2022/08/04 05:42:39;;;;;;;14.48;8.10;;;21.20;99.90;;;;;;5140312;27;20967;-77
2022/08/04 05:45:07;;;;;;;16.63;8.17;;;21.40;99.90;;;;;;5125129;27;20461;-77
2022/08/04 05:47:35;;;;;;;17.88;8.38;;;21.80;99.90;;;;;;5123644;27;20416;-77
2022/08/04 05:50:05;;;;;;;23.42;8.63;;;21.30;99.90;;;;;;5115107;27;20493;-77
2022/08/04 05:52:33;;;;;;;13.77;8.18;;;21.70;99.90;;;;;;5126877;27;20420;-77
2022/08/04 05:55:00;;;;;;;17.27;8.30;;;21.70;99.90;;;;;;5118811;27;20786;-77
2022/08/04 05:57:27;;;;;;;17.02;8.55;;;21.80;99.90;;;;;;5133384;27;20432;-77
2022/08/04 05:59:55;;;;;;;17.08;8.65;;;22.00;99.90;;;;;;5131380;27;20422;-76
2022/08/04 06:02:23;;;;;;;13.55;7.65;;;22.20;99.90;;;;;;5115747;27;20427;-77
2022/08/04 06:04:50;;;;;;;17.00;8.73;;;22.30;99.90;;;;;;5128367;27;20420;-77
2022/08/04 06:07:16;;;;;;;20.92;7.95;;;22.40;99.90;;;;;;5131941;27;20425;-78
2022/08/04 06:09:42;;;;;;;14.98;7.68;;;22.70;99.90;;;;;;5125742;27;20439;-77
2022/08/04 06:12:18;;;;;;;15.13;7.78;;;22.80;99.90;;;;;;5140190;27;20747;-78
2022/08/04 06:14:47;;;;;;;15.48;7.90;;;22.80;99.90;;;;;;5118679;27;20771;-78
2022/08/04 06:17:23;;;;;;;17.47;8.20;;;22.80;99.90;;;;;;5134114;27;20402;-78
2022/08/04 06:19:51;;;;;;;14.05;7.40;;;23.00;99.90;;;;;;5126940;27;20457;-77
2022/08/04 06:22:18;;;;;;;17.45;7.00;;;22.80;99.90;;;;;;5133732;27;20399;-77
2022/08/04 06:24:47;;;;;;;11.55;7.38;;;23.30;99.90;;;;;;5121932;27;20423;-77
2022/08/04 06:27:14;;;;;;;18.15;7.93;;;23.40;99.90;;;;;;5129848;27;20465;-77
2022/08/04 06:29:42;;;;;;;19.08;7.40;;;23.40;99.90;;;;;;5103206;27;20459;-77
2022/08/04 06:32:13;;;;;;;16.77;7.30;;;23.90;99.90;;;;;;5099710;27;20503;-77
2022/08/04 06:34:40;;;;;;;17.35;6.95;;;24.10;99.90;;;;;;5103136;27;20928;-80
2022/08/04 06:37:08;;;;;;;11.87;6.53;;;23.80;99.90;;;;;;5101301;28;20420;-80
2022/08/04 06:39:34;;;;;;;16.50;7.10;;;23.90;99.90;;;;;;5129723;27;20501;-81
2022/08/04 06:42:01;;;;;;;12.77;6.65;;;24.00;99.90;;;;;;5119292;27;20894;-81
2022/08/04 06:44:28;;;;;;;12.48;6.50;;;24.10;99.90;;;;;;5122035;27;20416;-81
2022/08/04 06:46:55;;;;;;;15.30;6.00;;;25.20;99.90;;;;;;5126412;27;20418;-81
2022/08/04 06:49:22;;;;;;;15.65;6.40;;;24.40;99.90;;;;;;5114064;27;20500;-80
2022/08/04 06:51:49;;;;;;;12.07;6.47;;;24.40;99.90;;;;;;5126116;27;20763;-81
2022/08/04 06:54:15;;;;;;;12.35;6.13;;;24.40;99.90;;;;;;5128056;27;20414;-81
2022/08/04 06:56:43;;;;;;;11.00;5.93;;;24.50;99.90;;;;;;5128798;27;20480;-81
2022/08/04 06:59:10;;;;;;;13.98;5.75;;;24.60;99.90;;;;;;5119872;27;20432;-81
2022/08/04 07:01:37;;;;;;;13.05;6.22;;;24.70;99.90;;;;;;5115806;27;20428;-81
2022/08/04 07:04:04;;;;;;;12.30;6.40;;;24.70;99.90;;;;;;5115343;27;20453;-80
2022/08/04 07:06:30;;;;;;;11.38;5.30;;;24.70;99.90;;;;;;5100164;27;20418;-81
2022/08/04 07:08:56;;;;;;;13.70;5.17;;;24.80;99.90;;;;;;5125767;27;20427;-81
2022/08/04 07:11:23;;;;;;;14.80;5.43;;;25.20;99.90;;;;;;5117793;27;20422;-81
2022/08/04 07:13:49;;;;;;;11.67;4.97;;;25.30;99.90;;;;;;5131563;27;20467;-81
2022/08/04 07:16:17;;;;;;;12.05;4.65;;;25.40;99.90;;;;;;5095486;27;20422;-81
2022/08/04 07:18:43;;;;;;;13.57;4.83;;;25.60;99.90;;;;;;5127149;27;20431;-81
2022/08/04 07:21:16;;;;;;;10.68;4.53;;;25.80;99.90;;;;;;5118405;27;20418;-81
2022/08/04 07:23:44;;;;;;;10.32;3.95;;;26.00;99.90;;;;;;5122207;27;20927;-81
2022/08/04 07:26:10;;;;;;;10.82;4.43;;;26.20;99.90;;;;;;5112623;27;20930;-81
2022/08/04 07:28:36;;;;;;;10.20;4.25;;;26.60;99.90;;;;;;5112470;27;20412;-81
2022/08/04 07:31:04;;;;;;;10.75;4.00;;;26.40;99.90;;;;;;5128111;27;20878;-81
2022/08/04 07:33:30;;;;;;;10.45;4.40;;;26.70;99.90;;;;;;5131232;27;20435;-81
2022/08/04 07:35:56;;;;;;;9.15;4.65;;;26.50;99.90;;;;;;5129161;27;20422;-78
2022/08/04 07:38:22;;;;;;;10.15;4.70;;;26.50;99.90;;;;;;5118019;27;20446;-77
2022/08/04 07:40:48;;;;;;;10.32;5.68;;;26.40;99.90;;;;;;5110183;27;20939;-78
2022/08/04 07:43:15;;;;;;;8.30;5.13;;;26.40;99.90;;;;;;5123882;27;20462;-77
2022/08/04 07:45:41;;;;;;;12.45;5.63;;;26.30;99.90;;;;;;5127927;27;20430;-77
2022/08/04 07:48:09;;;;;;;10.98;6.18;;;26.30;99.90;;;;;;5125754;27;20423;-77
2022/08/04 07:50:37;;;;;;;9.30;5.22;;;26.20;99.90;;;;;;5112028;28;20756;-77
2022/08/04 07:53:03;;;;;;;10.27;5.35;;;26.00;99.90;;;;;;5114216;27;20419;-77
2022/08/04 07:55:29;;;;;;;11.57;5.57;;;26.10;99.90;;;;;;5118606;27;20916;-77
2022/08/04 07:57:55;;;;;;;11.18;5.45;;;26.20;99.90;;;;;;5115982;27;21057;-77
2022/08/04 08:00:21;;;;;;;11.20;4.93;;;26.20;99.90;;;;;;5124981;27;20428;-77
2022/08/04 08:02:49;;;;;;;12.03;4.93;;;26.40;99.90;;;;;;5097359;27;20474;-77
2022/08/04 08:05:18;;;;;;;10.65;5.53;;;26.40;99.90;;;;;;5138284;27;20901;-76
2022/08/04 08:07:50;;;;;;;9.85;5.13;;;26.40;99.90;;;;;;5127989;27;20736;-76
2022/08/04 08:10:17;;;;;;;11.95;4.57;;;26.50;99.90;;;;;;5099323;27;20408;-78
2022/08/04 08:12:43;;;;;;;11.75;4.90;;;26.40;99.90;;;;;;5122604;27;20409;-76
2022/08/04 08:15:17;;;;;;;11.27;4.95;;;26.30;99.90;;;;;;5121818;27;20420;-76
2022/08/04 08:17:42;;;;;;;10.10;5.18;;;26.30;99.90;;;;;;5120810;27;20416;-78
2022/08/04 08:20:09;;;;;;;10.70;5.38;;;26.20;99.90;;;;;;5108025;27;20736;-80
2022/08/04 08:22:38;;;;;;;10.75;5.25;;;26.30;99.90;;;;;;5112259;27;20414;-75
2022/08/04 08:25:07;;;;;;;9.90;5.53;;;26.20;99.90;;;;;;5111888;27;20429;-80
2022/08/04 08:27:33;;;;;;;10.15;4.80;;;26.10;99.90;;;;;;5117716;27;20427;-80
2022/08/04 08:29:59;;;;;;;9.98;4.70;;;26.20;99.90;;;;;;5116707;27;20422;-79
2022/08/04 08:32:25;;;;;;;9.13;5.20;;;26.20;99.90;;;;;;5128863;27;20408;-79
2022/08/04 08:34:51;;;;;;;14.00;5.38;;;26.30;99.90;;;;;;5094569;28;20399;-79
2022/08/04 08:37:35;;;;;;;13.77;5.20;;;26.60;99.90;;;;;;5130384;27;20430;-79
2022/08/04 08:40:32;;;;;;;8.57;4.82;;;26.60;99.90;;;;;;5118891;27;20433;-82
2022/08/04 08:43:42;;;;;;;10.30;4.95;;;26.60;99.90;;;;;;5129222;27;20413;-81
2022/08/04 08:46:22;;;;;;;10.30;5.55;;;26.70;99.90;;;;;;5102583;27;20441;-80
2022/08/04 08:49:19;;;;;;;11.07;5.57;;;26.70;99.90;;;;;;5119478;27;20503;-80
2022/08/04 08:51:55;;;;;;;12.82;5.22;;;26.50;99.90;;;;;;5119856;27;20413;-79
2022/08/04 08:54:58;;;;;;;10.23;5.53;;;26.50;99.90;;;;;;5114482;28;20457;-79
2022/08/04 08:57:38;;;;;;;10.32;5.30;;;26.20;99.90;;;;;;5126269;27;20503;-78
2022/08/04 09:00:39;;;;;;;10.25;5.63;;;26.20;99.90;;;;;;5109745;28;20428;-79
2022/08/04 09:03:40;;;;;;;11.73;5.93;;;26.10;99.90;;;;;;5077021;28;20431;-79
2022/08/04 09:06:28;;;;;;;9.82;5.15;;;26.10;99.90;;;;;;5106274;27;20906;-78
2022/08/04 09:09:05;;;;;;;11.88;5.32;;;26.40;99.90;;;;;;5137547;27;20412;-78
2022/08/04 09:11:47;;;;;;;13.82;5.07;;;26.50;99.90;;;;;;5140768;27;20824;-78
2022/08/04 09:14:22;;;;;;;10.57;4.82;;;26.70;99.90;;;;;;5132379;28;20401;-77
2022/08/04 09:17:02;;;;;;;9.40;4.50;;;26.70;99.90;;;;;;5113041;28;20405;-78
2022/08/04 09:20:01;;;;;;;9.38;4.63;;;27.00;99.90;;;;;;5112015;27;20408;-79
2022/08/04 09:23:04;;;;;;;8.60;4.75;;;26.70;99.90;;;;;;5122237;27;20414;-79
2022/08/04 09:25:37;;;;;;;10.85;4.80;;;27.00;99.90;;;;;;5118950;27;20399;-78
2022/08/04 09:28:23;;;;;;;9.20;4.70;;;27.20;99.90;;;;;;5128846;27;20468;-78
2022/08/04 09:31:12;;;;;;;15.95;4.78;;;27.30;99.90;;;;;;5125936;27;20406;-78
2022/08/04 09:33:49;;;;;;;8.15;3.88;;;27.40;99.90;;;;;;5127499;27;20929;-77
2022/08/04 09:36:36;;;;;;;7.17;3.60;;;27.50;99.90;;;;;;5134110;27;20574;-79
2022/08/04 09:39:25;;;;;;;8.27;2.80;;;27.90;99.90;;;;;;5123341;27;20422;-78
2022/08/04 09:42:00;;;;;;;9.40;3.40;;;28.10;99.90;;;;;;5126029;27;20425;-78
2022/08/04 09:44:44;;;;;;;7.82;2.80;;;28.10;99.90;;;;;;5135116;27;20445;-79
2022/08/04 09:47:48;;;;;;;7.35;2.67;;;27.90;99.90;;;;;;5135313;27;20399;-80
2022/08/04 09:50:36;;;;;;;7.00;3.13;;;28.00;99.90;;;;;;5119730;27;21035;-79
2022/08/04 09:53:12;;;;;;;9.65;2.75;;;27.60;99.90;;;;;;5106664;27;20914;-78
2022/08/04 09:55:44;;;;;;;6.15;2.22;;;28.40;99.90;;;;;;5129269;27;20429;-78
2022/08/04 09:58:39;;;;;;;7.20;2.30;;;28.00;99.90;;;;;;5114926;27;20416;-78
2022/08/04 10:01:19;;;;;;;6.20;2.25;;;28.50;99.90;;;;;;5120091;27;20427;-79
2022/08/04 10:03:50;;;;;;;6.50;2.30;;;28.40;99.90;;;;;;5100481;27;20416;-79
2022/08/04 10:06:19;;;;;;;10.38;2.70;;;27.90;99.90;;;;;;5135196;27;20405;-78
2022/08/04 10:08:48;;;;;;;11.35;3.03;;;27.90;99.90;;;;;;5132687;27;20441;-79
2022/08/04 10:11:23;;;;;;;8.52;2.70;;;27.50;99.90;;;;;;5129306;27;20478;-78
2022/08/04 10:13:57;;;;;;;7.65;2.40;;;27.80;99.90;;;;;;5134164;27;20442;-78
2022/08/04 10:16:57;;;;;;;12.60;2.47;;;28.00;99.90;;;;;;5134264;27;20909;-79
2022/08/04 10:19:23;;;;;;;7.60;2.38;;;27.90;99.90;;;;;;5107289;27;20510;-79
2022/08/04 10:22:16;;;;;;;8.50;2.50;;;27.80;99.90;;;;;;5128306;27;20518;-79
2022/08/04 10:25:06;;;;;;;6.53;2.63;;;28.20;99.90;;;;;;5119967;27;20429;-79
2022/08/04 10:27:49;;;;;;;9.85;2.90;;;27.70;99.90;;;;;;5120221;27;20415;-79
2022/08/04 10:30:18;;;;;;;8.75;2.33;;;28.00;99.90;;;;;;5096710;28;20794;-80
2022/08/04 10:33:03;;;;;;;6.47;2.40;;;28.10;99.90;;;;;;5112629;28;20416;-80
2022/08/04 10:35:37;;;;;;;8.23;2.60;;;28.10;99.90;;;;;;5112194;27;20462;-80
2022/08/04 10:38:28;;;;;;;7.43;3.00;;;28.10;99.90;;;;;;5133165;27;20424;-79
2022/08/04 10:41:12;;;;;;;6.88;2.30;;;27.90;99.90;;;;;;5113205;28;20915;-80
2022/08/04 10:44:13;;;;;;;5.95;2.00;;;27.70;99.90;;;;;;5097594;27;20451;-78
2022/08/04 10:46:46;;;;;;;5.50;1.90;;;27.90;99.90;;;;;;5113224;27;20419;-80
2022/08/04 10:49:34;;;;;;;4.93;2.00;;;28.10;99.90;;;;;;5126350;27;20414;-79
2022/08/04 10:52:13;;;;;;;6.60;2.07;;;28.30;99.90;;;;;;5133066;27;20425;-78
2022/08/04 10:54:51;;;;;;;5.65;2.00;;;28.50;99.90;;;;;;5116543;27;20443;-78
2022/08/04 10:57:29;;;;;;;5.20;1.90;;;28.10;99.90;;;;;;5116413;27;20431;-78
2022/08/04 11:00:20;;;;;;;4.70;1.70;;;27.80;99.90;;;;;;5114998;27;20548;-78
2022/08/04 11:03:05;;;;;;;7.43;2.15;;;28.20;99.90;;;;;;5107508;28;20424;-79
2022/08/04 11:05:51;;;;;;;4.50;1.92;;;28.10;99.90;;;;;;5124607;27;20439;-79
2022/08/04 11:08:20;;;;;;;3.22;1.60;;;30.10;99.90;;;;;;5106470;27;20444;-79
2022/08/04 11:10:58;;;;;;;3.70;1.80;;;28.40;99.90;;;;;;5130959;27;20788;-79
2022/08/04 11:13:28;;;;;;;5.23;1.60;;;28.40;99.90;;;;;;5131405;27;20454;-79
2022/08/04 11:15:56;;;;;;;3.72;1.85;;;28.20;99.90;;;;;;5131650;27;20901;-79
2022/08/04 11:18:34;;;;;;;3.65;1.50;;;28.40;99.90;;;;;;5113092;27;21042;-79
2022/08/04 11:21:19;;;;;;;3.25;1.50;;;28.30;99.90;;;;;;5126815;27;20417;-79
2022/08/04 11:23:55;;;;;;;3.22;1.45;;;28.40;99.90;;;;;;5123870;27;20420;-79
2022/08/04 11:26:29;;;;;;;3.60;1.55;;;28.70;99.90;;;;;;5130075;27;20834;-80
2022/08/04 11:28:55;;;;;;;4.40;1.60;;;28.50;99.90;;;;;;5130123;27;20770;-79
2022/08/04 11:31:25;;;;;;;3.13;1.50;;;28.40;99.90;;;;;;5130948;27;20414;-81
2022/08/04 11:34:16;;;;;;;4.03;1.70;;;28.40;99.90;;;;;;5118618;27;20511;-79
2022/08/04 11:36:48;;;;;;;4.05;1.80;;;28.30;99.90;;;;;;5113139;27;20424;-77
2022/08/04 11:39:26;;;;;;;4.00;1.90;;;28.50;99.90;;;;;;5111721;27;20504;-78
2022/08/04 11:41:59;;;;;;;4.15;1.88;;;28.40;99.90;;;;;;5138270;27;20403;-77
2022/08/04 11:44:54;;;;;;;4.60;1.95;;;28.30;99.90;;;;;;5124371;27;20431;-77
2022/08/04 11:47:23;;;;;;;4.33;1.60;;;28.50;99.90;;;;;;5121031;27;20422;-77
2022/08/04 11:50:08;;;;;;;4.95;1.60;;;28.30;99.90;;;;;;5132810;27;20916;-76
2022/08/04 11:52:37;;;;;;;4.85;1.88;;;28.10;99.90;;;;;;5133343;27;20401;-76
2022/08/04 11:55:08;;;;;;;9.65;1.83;;;27.90;99.90;;;;;;5132356;27;20979;-80
2022/08/04 11:57:34;;;;;;;5.07;1.70;;;28.00;99.90;;;;;;5133663;27;20453;-81
2022/08/04 12:00:04;;;;;;;4.53;1.70;;;28.10;99.90;;;;;;5118339;28;20400;-79
2022/08/04 12:02:50;;;;;;;3.40;1.55;;;28.10;99.90;;;;;;5120259;28;20434;-79
2022/08/04 12:05:20;;;;;;;4.60;1.52;;;28.20;99.90;;;;;;5122982;27;20498;-80
2022/08/04 12:08:20;;;;;;;3.95;1.52;;;28.20;99.90;;;;;;5110871;28;20416;-80
2022/08/04 12:10:56;;;;;;;3.33;1.40;;;28.00;99.90;;;;;;5112836;27;20415;-80
2022/08/04 12:13:39;;;;;;;4.18;1.60;;;27.60;99.90;;;;;;5117000;27;20428;-80
2022/08/04 12:16:21;;;;;;;2.75;1.20;;;27.70;99.90;;;;;;5121820;27;20429;-81
2022/08/04 12:18:53;;;;;;;2.90;1.40;;;27.40;99.90;;;;;;5118644;27;20513;-80
2022/08/04 12:21:46;;;;;;;4.55;1.30;;;27.60;99.90;;;;;;5122020;27;20423;-80
2022/08/04 12:24:28;;;;;;;2.90;1.45;;;27.10;99.90;;;;;;5126172;27;20426;-80
2022/08/04 12:27:26;;;;;;;3.35;1.50;;;27.20;99.90;;;;;;5112691;28;20973;-79
2022/08/04 12:29:53;;;;;;;3.85;1.60;;;27.30;99.90;;;;;;5121180;27;20428;-80
2022/08/04 12:32:37;;;;;;;2.87;1.60;;;27.30;99.90;;;;;;5119755;27;20934;-80
2022/08/04 12:35:20;;;;;;;4.22;1.50;;;27.30;99.90;;;;;;5130548;27;20453;-79
2022/08/04 12:38:06;;;;;;;4.03;1.70;;;27.30;99.90;;;;;;5129585;27;20410;-81
2022/08/04 12:40:47;;;;;;;4.47;1.60;;;27.60;99.90;;;;;;5116405;28;20412;-80
2022/08/04 12:43:38;;;;;;;3.13;1.40;;;27.80;99.90;;;;;;5117535;27;20486;-81
2022/08/04 12:46:07;;;;;;;4.65;1.58;;;28.20;99.90;;;;;;5107470;28;20858;-80
2022/08/04 12:48:36;;;;;;;3.10;1.40;;;28.20;99.90;;;;;;5125073;27;20414;-80
2022/08/04 12:51:02;;;;;;;2.40;1.30;;;28.10;99.90;;;;;;5121147;27;20486;-80
2022/08/04 12:53:42;;;;;;;3.03;1.20;;;28.10;99.90;;;;;;5129430;27;20440;-80
2022/08/04 12:56:10;;;;;;;2.90;1.40;;;28.30;99.90;;;;;;5125326;27;20562;-80
2022/08/04 12:58:42;;;;;;;4.72;1.50;;;28.60;99.90;;;;;;5119821;28;20488;-80
2022/08/04 13:01:11;;;;;;;2.50;1.27;;;28.50;99.90;;;;;;5122329;27;20445;-80
2022/08/04 13:03:44;;;;;;;6.57;1.60;;;28.50;99.90;;;;;;5133369;27;20419;-79
2022/08/04 13:06:12;;;;;;;2.75;1.40;;;28.10;99.90;;;;;;5126230;28;20785;-80
2022/08/04 13:08:42;;;;;;;3.45;1.30;;;28.40;99.90;;;;;;5123637;27;20422;-79
2022/08/04 13:11:10;;;;;;;3.88;1.30;;;28.40;99.90;;;;;;5120947;28;20440;-80
2022/08/04 13:13:37;;;;;;;3.90;1.58;;;28.50;99.90;;;;;;5122940;28;20427;-81
2022/08/04 13:16:09;;;;;;;3.45;1.50;;;28.80;99.90;;;;;;5115735;28;20449;-80
2022/08/04 13:18:41;;;;;;;3.45;1.60;;;28.50;99.90;;;;;;5121139;27;20884;-81
2022/08/04 13:21:19;;;;;;;4.30;1.80;;;28.90;99.90;;;;;;5115746;28;20415;-80
2022/08/04 13:23:45;;;;;;;2.90;1.40;;;28.30;99.90;;;;;;5121281;28;20828;-80
2022/08/04 13:26:13;;;;;;;3.95;1.48;;;29.00;99.90;;;;;;5119986;28;20909;-80
2022/08/04 13:28:42;;;;;;;3.47;1.50;;;29.10;99.90;;;;;;5117962;28;20966;-80
2022/08/04 13:31:12;;;;;;;6.65;1.50;;;29.10;99.90;;;;;;5132231;27;20425;-81
2022/08/04 13:33:41;;;;;;;4.15;1.63;;;29.30;99.90;;;;;;5125219;28;20483;-81
2022/08/04 13:36:08;;;;;;;4.40;1.40;;;29.30;99.90;;;;;;5128036;28;20924;-81
2022/08/04 13:38:39;;;;;;;4.28;1.60;;;29.50;99.90;;;;;;5129475;28;20518;-80
2022/08/04 13:41:06;;;;;;;3.97;1.30;;;29.20;99.90;;;;;;5113031;28;20427;-81